Time;durP1;ratioP1;P1;durP2;ratioP2;P2;SDS_P1;SDS_P2;PMS_P1;PMS_P2;Temp;Humidity;BMP_temperature;BMP_pressure;BME280_temperature;BME280_humidity;BME280_pressure;Samples;Min_cycle;Max_cycle;Signal;HPM_P1;HPM_P2
2022/08/17 00:00:53;;;;;;;4.72;0.70;;;;;;;;;;5010560;28;20057;-59
2022/08/17 00:03:26;;;;;;;5.18;0.90;;;;;;;;;;5010675;28;20038;-55
2022/08/17 00:05:58;;;;;;;7.30;1.20;;;;;;;;;;5011564;28;20029;-55
2022/08/17 00:08:31;;;;;;;8.88;1.48;;;;;;;;;;5010403;28;20064;-57
2022/08/17 00:10:58;;;;;;;14.10;1.30;;;;;;;;;;5010687;28;20071;-53
2022/08/17 00:13:28;;;;;;;9.32;1.20;;;;;;;;;;5011667;28;20033;-50
2022/08/17 00:15:58;;;;;;;10.45;1.25;;;;;;;;;;4994691;28;20065;-51
2022/08/17 00:18:29;;;;;;;10.02;1.13;;;;;;;;;;5012024;28;20488;-56
2022/08/17 00:20:56;;;;;;;10.07;1.30;;;;;;;;;;5011300;28;20068;-55
2022/08/17 00:23:24;;;;;;;13.57;1.67;;;;;;;;;;5012032;28;20025;-52
2022/08/17 00:25:51;;;;;;;10.88;1.30;;;;;;;;;;5012445;28;20065;-52
2022/08/17 00:28:18;;;;;;;9.35;1.70;;;;;;;;;;5012221;28;20042;-56
2022/08/17 00:30:46;;;;;;;14.45;1.48;;;;;;;;;;5010429;28;20033;-55
2022/08/17 00:33:15;;;;;;;12.05;1.38;;;;;;;;;;5012159;28;20026;-53
2022/08/17 00:35:43;;;;;;;9.32;1.13;;;;;;;;;;5011580;28;20480;-53
2022/08/17 00:38:11;;;;;;;25.90;1.80;;;;;;;;;;4994422;28;20099;-51
2022/08/17 00:40:39;;;;;;;14.70;1.90;;;;;;;;;;5009593;28;20487;-54
2022/08/17 00:43:13;;;;;;;18.33;1.77;;;;;;;;;;5011324;28;20034;-54
2022/08/17 00:45:40;;;;;;;15.70;1.30;;;;;;;;;;5011115;28;20038;-54
2022/08/17 00:48:07;;;;;;;23.85;2.00;;;;;;;;;;4993576;28;20427;-59
2022/08/17 00:50:34;;;;;;;15.38;1.60;;;;;;;;;;4991881;28;20120;-61
2022/08/17 00:53:03;;;;;;;21.73;2.00;;;;;;;;;;5008133;28;20388;-60
2022/08/17 00:55:31;;;;;;;17.60;1.45;;;;;;;;;;5011214;28;20183;-57
2022/08/17 00:58:00;;;;;;;15.52;1.75;;;;;;;;;;5011454;28;20041;-55
2022/08/17 01:00:30;;;;;;;19.95;1.60;;;;;;;;;;5011685;28;20549;-60
2022/08/17 01:03:07;;;;;;;20.70;1.63;;;;;;;;;;5011999;28;20033;-58
2022/08/17 01:05:37;;;;;;;13.43;1.50;;;;;;;;;;5011930;28;20053;-59
2022/08/17 01:08:05;;;;;;;15.18;1.98;;;;;;;;;;5012260;28;20061;-59
2022/08/17 01:10:52;;;;;;;14.98;1.95;;;;;;;;;;5012028;28;20037;-59
2022/08/17 01:13:20;;;;;;;13.88;2.08;;;;;;;;;;5011412;28;20022;-59
2022/08/17 01:15:50;;;;;;;16.38;1.60;;;;;;;;;;5011192;28;20033;-57
2022/08/17 01:18:17;;;;;;;15.02;1.77;;;;;;;;;;5011005;28;20033;-56
2022/08/17 01:20:47;;;;;;;11.18;1.77;;;;;;;;;;5012104;28;20537;-58
2022/08/17 01:23:14;;;;;;;9.02;1.52;;;;;;;;;;5012367;28;20072;-57
2022/08/17 01:25:41;;;;;;;18.05;1.70;;;;;;;;;;5012400;28;20034;-55
2022/08/17 01:28:08;;;;;;;22.75;2.25;;;;;;;;;;5017214;28;20057;-58
2022/08/17 01:30:36;;;;;;;25.90;2.67;;;;;;;;;;5017177;28;20033;-58
2022/08/17 01:33:03;;;;;;;32.78;6.82;;;;;;;;;;5013462;28;20053;-59
2022/08/17 01:35:30;;;;;;;37.40;8.20;;;;;;;;;;5015698;28;20069;-60
2022/08/17 01:37:57;;;;;;;50.90;10.85;;;;;;;;;;5015666;28;20042;-59
2022/08/17 01:40:29;;;;;;;67.85;16.98;;;;;;;;;;5015746;28;20477;-59
2022/08/17 01:42:58;;;;;;;86.55;20.50;;;;;;;;;;5015788;28;20022;-60
2022/08/17 01:45:27;;;;;;;95.32;24.17;;;;;;;;;;5015634;28;20121;-58
2022/08/17 01:47:54;;;;;;;116.13;28.63;;;;;;;;;;5015598;28;20026;-56
2022/08/17 01:50:24;;;;;;;132.25;32.90;;;;;;;;;;5015367;28;20491;-56
2022/08/17 01:52:53;;;;;;;187.98;44.95;;;;;;;;;;5015498;28;20105;-58
2022/08/17 01:55:21;;;;;;;179.18;41.58;;;;;;;;;;5015498;28;20032;-61
2022/08/17 01:57:48;;;;;;;214.50;48.08;;;;;;;;;;5015415;28;20030;-59
2022/08/17 02:00:17;;;;;;;220.70;50.65;;;;;;;;;;5015021;28;20577;-60
2022/08/17 02:02:44;;;;;;;185.65;45.58;;;;;;;;;;5015074;28;20072;-59
2022/08/17 02:05:11;;;;;;;214.13;50.80;;;;;;;;;;5015352;28;20428;-59
2022/08/17 02:07:39;;;;;;;219.95;50.97;;;;;;;;;;5015076;28;20436;-59
2022/08/17 02:10:07;;;;;;;192.30;47.60;;;;;;;;;;5015086;28;20037;-59
2022/08/17 02:12:36;;;;;;;189.90;48.00;;;;;;;;;;5015011;28;20041;-60
2022/08/17 02:15:07;;;;;;;189.27;46.13;;;;;;;;;;5015109;28;20036;-59
2022/08/17 02:17:34;;;;;;;198.10;49.22;;;;;;;;;;5022097;28;20037;-59
2022/08/17 02:20:02;;;;;;;178.75;46.88;;;;;;;;;;5023307;28;20424;-60
2022/08/17 02:22:29;;;;;;;175.80;45.88;;;;;;;;;;5024487;28;20028;-62
2022/08/17 02:24:57;;;;;;;157.68;42.42;;;;;;;;;;5025228;28;20137;-62
2022/08/17 02:27:24;;;;;;;172.50;45.50;;;;;;;;;;5020851;28;20484;-62
2022/08/17 02:29:51;;;;;;;154.65;43.75;;;;;;;;;;5024074;28;20116;-62
2022/08/17 02:32:19;;;;;;;155.70;42.95;;;;;;;;;;5025293;28;20479;-63
2022/08/17 02:34:46;;;;;;;139.73;39.22;;;;;;;;;;5023599;28;20084;-62
2022/08/17 02:37:16;;;;;;;131.13;36.75;;;;;;;;;;5023890;28;20546;-61
2022/08/17 02:39:44;;;;;;;138.18;38.50;;;;;;;;;;5020430;28;20507;-61
2022/08/17 02:42:12;;;;;;;133.80;37.35;;;;;;;;;;5028667;28;20034;-60
2022/08/17 02:44:40;;;;;;;139.95;36.60;;;;;;;;;;5033684;28;20479;-60
2022/08/17 02:47:08;;;;;;;116.97;31.58;;;;;;;;;;5034420;28;20026;-60
2022/08/17 02:49:35;;;;;;;129.00;34.40;;;;;;;;;;5034351;28;20044;-61
2022/08/17 02:52:04;;;;;;;110.63;31.65;;;;;;;;;;5034402;28;20064;-60
2022/08/17 02:54:31;;;;;;;110.75;30.40;;;;;;;;;;5034255;28;20059;-60
2022/08/17 02:56:58;;;;;;;108.50;31.45;;;;;;;;;;5034256;28;20522;-62
2022/08/17 02:59:25;;;;;;;107.90;29.95;;;;;;;;;;5034347;28;20422;-63
2022/08/17 03:01:52;;;;;;;114.82;31.33;;;;;;;;;;5016239;28;20061;-63
2022/08/17 03:04:19;;;;;;;104.05;28.90;;;;;;;;;;5034123;28;20487;-62
2022/08/17 03:06:46;;;;;;;100.00;29.55;;;;;;;;;;5033883;28;20060;-62
2022/08/17 03:09:15;;;;;;;95.20;27.23;;;;;;;;;;5033854;28;20041;-62
2022/08/17 03:11:43;;;;;;;99.40;28.75;;;;;;;;;;5033979;28;20164;-62
2022/08/17 03:14:10;;;;;;;90.45;27.10;;;;;;;;;;5033918;28;20028;-63
2022/08/17 03:16:37;;;;;;;91.80;27.75;;;;;;;;;;5033906;28;20025;-62
2022/08/17 03:19:04;;;;;;;82.80;25.63;;;;;;;;;;5033817;28;20671;-62
2022/08/17 03:21:30;;;;;;;80.93;24.73;;;;;;;;;;5033751;28;20064;-63
2022/08/17 03:23:58;;;;;;;82.43;24.50;;;;;;;;;;5033685;28;20052;-62
2022/08/17 03:26:26;;;;;;;79.68;25.13;;;;;;;;;;5033674;28;20087;-63
2022/08/17 03:28:53;;;;;;;69.13;23.05;;;;;;;;;;5033552;28;20029;-63
2022/08/17 03:31:20;;;;;;;73.28;23.27;;;;;;;;;;5033621;28;20030;-62
2022/08/17 03:33:48;;;;;;;80.05;22.60;;;;;;;;;;5033560;28;20037;-62
2022/08/17 03:36:15;;;;;;;72.47;24.38;;;;;;;;;;5015706;28;20469;-62
2022/08/17 03:38:42;;;;;;;67.65;22.02;;;;;;;;;;5033625;28;20069;-63
2022/08/17 03:41:09;;;;;;;64.70;21.30;;;;;;;;;;5015681;28;20033;-63
2022/08/17 03:43:36;;;;;;;72.95;23.05;;;;;;;;;;5033577;28;20200;-62
2022/08/17 03:57:06;;;;;;;59.85;19.00;;;;;;;;;;5032345;28;20044;-62
2022/08/17 03:59:34;;;;;;;64.65;20.92;;;;;;;;;;5032599;28;20060;-63
2022/08/17 04:02:06;;;;;;;60.50;20.60;;;;;;;;;;5032930;28;20052;-62
2022/08/17 04:04:33;;;;;;;58.17;19.58;;;;;;;;;;5032920;28;20033;-62
2022/08/17 04:07:00;;;;;;;58.85;19.55;;;;;;;;;;5033097;28;20049;-62
2022/08/17 04:09:27;;;;;;;58.92;19.92;;;;;;;;;;5032888;28;20028;-62
2022/08/17 04:11:54;;;;;;;55.85;19.23;;;;;;;;;;5032838;28;20040;-62
2022/08/17 04:14:21;;;;;;;50.53;17.40;;;;;;;;;;5032835;28;20025;-62
2022/08/17 04:16:48;;;;;;;57.13;19.08;;;;;;;;;;5032817;28;20056;-62
2022/08/17 04:19:15;;;;;;;61.78;19.40;;;;;;;;;;5032819;28;20031;-62
2022/08/17 04:21:42;;;;;;;63.08;19.98;;;;;;;;;;5032871;28;20025;-62
2022/08/17 04:24:09;;;;;;;53.22;19.13;;;;;;;;;;5032789;28;20024;-62
2022/08/17 04:26:36;;;;;;;55.72;18.50;;;;;;;;;;5032779;28;20376;-63
2022/08/17 04:29:03;;;;;;;50.55;17.40;;;;;;;;;;5032568;28;20503;-62
2022/08/17 04:31:30;;;;;;;51.05;17.77;;;;;;;;;;5032639;28;20062;-62
2022/08/17 04:33:57;;;;;;;50.58;17.35;;;;;;;;;;5032504;28;20029;-62
2022/08/17 04:36:25;;;;;;;45.88;17.00;;;;;;;;;;5032631;28;20102;-62
2022/08/17 04:38:52;;;;;;;49.05;16.83;;;;;;;;;;5032442;28;20488;-62
2022/08/17 04:44:04;;;;;;;44.08;16.33;;;;;;;;;;5032649;28;20514;-62
2022/08/17 04:46:34;;;;;;;44.03;16.00;;;;;;;;;;5032531;28;20026;-62
2022/08/17 04:49:03;;;;;;;48.13;16.60;;;;;;;;;;5032368;28;20491;-62
2022/08/17 04:51:33;;;;;;;44.15;16.10;;;;;;;;;;5032429;28;20028;-62
2022/08/17 04:54:02;;;;;;;46.53;15.95;;;;;;;;;;5032281;28;20033;-62
2022/08/17 04:56:29;;;;;;;38.22;15.25;;;;;;;;;;5032422;28;20030;-62
2022/08/17 04:58:58;;;;;;;45.50;15.85;;;;;;;;;;5032265;28;20029;-62
2022/08/17 05:01:26;;;;;;;41.22;14.63;;;;;;;;;;5032135;28;20079;-62
2022/08/17 05:03:55;;;;;;;40.78;14.60;;;;;;;;;;5032416;28;20030;-62
2022/08/17 05:06:22;;;;;;;40.30;14.95;;;;;;;;;;5032291;28;20561;-62
2022/08/17 05:08:49;;;;;;;38.28;14.25;;;;;;;;;;5034709;28;20029;-62
2022/08/17 05:11:16;;;;;;;33.78;13.25;;;;;;;;;;5036181;28;20109;-63
2022/08/17 05:13:43;;;;;;;38.42;13.73;;;;;;;;;;5036116;28;20087;-62
2022/08/17 05:16:10;;;;;;;34.47;13.57;;;;;;;;;;5036069;28;20483;-62
2022/08/17 05:18:37;;;;;;;40.38;14.18;;;;;;;;;;5036035;28;20502;-62
2022/08/17 05:21:05;;;;;;;37.63;14.05;;;;;;;;;;5036017;28;20530;-62
2022/08/17 05:23:32;;;;;;;34.33;13.18;;;;;;;;;;5036230;28;20095;-62
2022/08/17 05:25:59;;;;;;;40.20;14.10;;;;;;;;;;5035988;28;20483;-63
2022/08/17 05:28:27;;;;;;;34.53;12.68;;;;;;;;;;5035777;28;20037;-62
2022/08/17 05:30:56;;;;;;;32.53;12.13;;;;;;;;;;5035820;28;20087;-62
2022/08/17 05:33:24;;;;;;;35.58;13.38;;;;;;;;;;5035846;28;20084;-62
2022/08/17 05:35:53;;;;;;;31.77;12.55;;;;;;;;;;5035624;28;20029;-62
2022/08/17 05:38:21;;;;;;;33.85;12.02;;;;;;;;;;5035470;28;20038;-62
2022/08/17 05:40:48;;;;;;;31.27;12.13;;;;;;;;;;5035525;28;20044;-62
2022/08/17 05:43:23;;;;;;;30.90;12.38;;;;;;;;;;5035705;28;20591;-63
2022/08/17 05:45:53;;;;;;;33.40;12.60;;;;;;;;;;5035642;28;20026;-63
2022/08/17 05:48:20;;;;;;;30.67;11.50;;;;;;;;;;5035480;28;20476;-62
2022/08/17 05:51:01;;;;;;;28.33;10.55;;;;;;;;;;5035538;28;20032;-62
2022/08/17 05:53:54;;;;;;;25.67;10.85;;;;;;;;;;5035509;28;20021;-62
2022/08/17 05:56:27;;;;;;;27.52;11.00;;;;;;;;;;5012522;28;20048;-62
2022/08/17 05:59:12;;;;;;;30.42;11.07;;;;;;;;;;5035189;28;20486;-62
2022/08/17 06:01:39;;;;;;;28.55;10.68;;;;;;;;;;5025557;28;20092;-63
2022/08/17 06:04:25;;;;;;;26.92;10.90;;;;;;;;;;5015599;28;20022;-63
2022/08/17 06:07:14;;;;;;;25.35;10.13;;;;;;;;;;5015402;28;20040;-63
2022/08/17 06:10:00;;;;;;;27.92;11.13;;;;;;;;;;5007847;28;20044;-63
2022/08/17 06:12:39;;;;;;;29.50;10.85;;;;;;;;;;5015318;28;20396;-63
2022/08/17 06:15:09;;;;;;;27.45;11.30;;;;;;;;;;5015105;28;20117;-63
2022/08/17 06:17:37;;;;;;;24.83;10.43;;;;;;;;;;5015225;28;20034;-63
2022/08/17 06:20:07;;;;;;;24.23;9.68;;;;;;;;;;5014118;28;20030;-63
2022/08/17 06:22:38;;;;;;;33.05;10.43;;;;;;;;;;5015186;28;20053;-63
2022/08/17 06:25:08;;;;;;;23.10;10.27;;;;;;;;;;5015043;28;20484;-63
2022/08/17 06:28:01;;;;;;;23.73;10.05;;;;;;;;;;5015117;28;20018;-63
2022/08/17 06:30:29;;;;;;;23.15;9.50;;;;;;;;;;5012354;28;20396;-63
2022/08/17 06:33:04;;;;;;;22.20;9.20;;;;;;;;;;5169987;22;20057;-56
2022/08/17 06:35:39;;;;;;;22.75;9.63;;;;;;;;;;5034021;28;20037;-55
2022/08/17 06:38:26;;;;;;;21.25;8.73;;;;;;;;;;5034734;28;20029;-52
2022/08/17 06:41:11;;;;;;;20.85;8.73;;;;;;;;;;5034519;28;20026;-56
2022/08/17 06:43:44;;;;;;;20.90;9.20;;;;;;;;;;5034475;28;20033;-52
2022/08/17 06:46:31;;;;;;;23.02;9.57;;;;;;;;;;5034536;28;20113;-54
2022/08/17 06:48:58;;;;;;;23.38;9.60;;;;;;;;;;5017980;28;20042;-54
2022/08/17 06:51:49;;;;;;;20.00;8.25;;;;;;;;;;5034495;28;20041;-54
2022/08/17 06:54:35;;;;;;;22.15;8.75;;;;;;;;;;5034194;28;20095;-54
2022/08/17 06:57:09;;;;;;;20.00;8.50;;;;;;;;;;5034368;28;20041;-54
2022/08/17 06:59:49;;;;;;;18.65;8.45;;;;;;;;;;5034292;28;20031;-52
2022/08/17 07:02:21;;;;;;;19.95;8.30;;;;;;;;;;5034165;28;20105;-56
2022/08/17 07:04:49;;;;;;;18.67;8.23;;;;;;;;;;5034079;28;20037;-53
2022/08/17 07:10:04;;;;;;;14.82;6.35;;;;;;;;;;5034379;28;20044;-53
2022/08/17 07:12:37;;;;;;;20.10;8.38;;;;;;;;;;5033827;28;20033;-49
2022/08/17 07:15:18;;;;;;;20.10;8.35;;;;;;;;;;5033773;28;20064;-56
2022/08/17 07:17:46;;;;;;;16.63;8.07;;;;;;;;;;5033979;28;20095;-53
2022/08/17 07:20:21;;;;;;;16.73;7.60;;;;;;;;;;5034061;28;20448;-54
2022/08/17 07:22:53;;;;;;;19.83;8.85;;;;;;;;;;5033897;28;20037;-51
2022/08/17 07:25:20;;;;;;;20.27;8.10;;;;;;;;;;5033854;28;20500;-53
2022/08/17 07:27:51;;;;;;;16.52;8.07;;;;;;;;;;5033748;28;20080;-54
2022/08/17 07:30:21;;;;;;;18.65;7.85;;;;;;;;;;5033439;28;20029;-53
2022/08/17 07:32:50;;;;;;;17.00;7.20;;;;;;;;;;5033209;28;20049;-55
2022/08/17 07:35:22;;;;;;;15.77;7.25;;;;;;;;;;5033437;28;20040;-56
2022/08/17 07:37:54;;;;;;;16.55;7.20;;;;;;;;;;5033461;28;20486;-51
2022/08/17 07:40:21;;;;;;;17.25;7.15;;;;;;;;;;5033462;28;20030;-51
2022/08/17 07:43:08;;;;;;;18.40;7.30;;;;;;;;;;5033420;28;20032;-55
2022/08/17 07:48:25;;;;;;;16.90;6.75;;;;;;;;;;5033642;28;20115;-56
2022/08/17 07:50:52;;;;;;;15.70;6.90;;;;;;;;;;5033293;28;20476;-54
2022/08/17 07:53:22;;;;;;;14.80;6.70;;;;;;;;;;5033274;28;20479;-57
2022/08/17 07:55:49;;;;;;;14.43;6.50;;;;;;;;;;5033117;28;20044;-54
2022/08/17 07:58:17;;;;;;;13.63;6.10;;;;;;;;;;5033298;28;20057;-53
2022/08/17 08:00:45;;;;;;;13.75;6.40;;;;;;;;;;5033069;28;20025;-50
2022/08/17 08:03:14;;;;;;;12.43;6.03;;;;;;;;;;5032923;28;20055;-55
2022/08/17 08:05:48;;;;;;;14.88;6.03;;;;;;;;;;5033025;28;20033;-55
2022/08/17 08:08:25;;;;;;;14.10;6.47;;;;;;;;;;5033013;28;20029;-56
2022/08/17 08:11:01;;;;;;;13.75;5.95;;;;;;;;;;5032927;28;20040;-53
2022/08/17 08:13:29;;;;;;;13.05;5.70;;;;;;;;;;5033030;28;20025;-54
2022/08/17 08:16:12;;;;;;;12.23;6.22;;;;;;;;;;5032793;28;20116;-54
2022/08/17 08:18:38;;;;;;;;;;;;;;;;;;5033481;28;20048;-53
2022/08/17 08:21:08;;;;;;;11.00;5.50;;;;;;;;;;5032815;28;19909;-53
2022/08/17 08:23:38;;;;;;;11.05;5.60;;;;;;;;;;5033065;28;20037;-54
2022/08/17 08:26:05;;;;;;;12.00;5.43;;;;;;;;;;5032761;28;20040;-53
2022/08/17 08:28:35;;;;;;;12.85;6.10;;;;;;;;;;5032732;28;20414;-55
2022/08/17 08:31:14;;;;;;;11.82;5.53;;;;;;;;;;5032673;28;20025;-51
2022/08/17 08:33:55;;;;;;;13.48;5.47;;;;;;;;;;5032696;28;20033;-55
2022/08/17 08:36:39;;;;;;;11.35;5.15;;;;;;;;;;5032528;28;20386;-55
2022/08/17 08:39:11;;;;;;;11.82;5.05;;;;;;;;;;5032756;28;20038;-53
2022/08/17 08:41:41;;;;;;;9.32;4.65;;;;;;;;;;5032427;28;20033;-53
2022/08/17 08:44:22;;;;;;;11.73;4.70;;;;;;;;;;5038668;28;20025;-54
2022/08/17 08:46:53;;;;;;;9.10;4.40;;;;;;;;;;5039150;28;20033;-51
2022/08/17 08:49:32;;;;;;;11.27;4.70;;;;;;;;;;5039094;28;20030;-56
2022/08/17 08:52:00;;;;;;;12.57;4.88;;;;;;;;;;5039023;28;20105;-53
2022/08/17 08:54:30;;;;;;;10.55;4.60;;;;;;;;;;5039145;28;20029;-56
2022/08/17 08:57:15;;;;;;;9.68;4.20;;;;;;;;;;5038999;28;20037;-52
2022/08/17 08:59:42;;;;;;;9.27;4.00;;;;;;;;;;5039001;28;20435;-55
2022/08/17 09:02:42;;;;;;;9.15;4.32;;;;;;;;;;5038978;28;20079;-56
2022/08/17 09:05:27;;;;;;;9.63;4.20;;;;;;;;;;4985491;28;20056;-53
2022/08/17 09:08:04;;;;;;;8.02;3.65;;;;;;;;;;5039059;28;20021;-53
2022/08/17 09:10:41;;;;;;;7.05;3.78;;;;;;;;;;5038858;28;20479;-53
2022/08/17 09:13:20;;;;;;;8.82;3.70;;;;;;;;;;5038734;28;20033;-53
2022/08/17 09:16:07;;;;;;;8.63;3.60;;;;;;;;;;5038729;28;20494;-52
2022/08/17 09:18:37;;;;;;;10.55;4.18;;;;;;;;;;5038778;28;20028;-52
2022/08/17 09:21:16;;;;;;;8.63;4.00;;;;;;;;;;5039088;28;20029;-54
2022/08/17 09:23:48;;;;;;;7.45;3.47;;;;;;;;;;5038877;28;20526;-55
2022/08/17 09:26:26;;;;;;;7.07;3.42;;;;;;;;;;5038798;28;20554;-55
2022/08/17 09:28:59;;;;;;;5.78;3.25;;;;;;;;;;5038729;28;20048;-54
2022/08/17 09:31:36;;;;;;;6.90;3.33;;;;;;;;;;5038420;28;20605;-56
2022/08/17 09:34:07;;;;;;;7.88;3.60;;;;;;;;;;5038635;28;20071;-56
2022/08/17 09:36:40;;;;;;;10.02;3.08;;;;;;;;;;5020819;28;20406;-52
2022/08/17 09:39:07;;;;;;;7.97;3.00;;;;;;;;;;5038840;28;20116;-57
2022/08/17 09:41:53;;;;;;;10.02;3.65;;;;;;;;;;5038432;28;20109;-54
2022/08/17 09:44:28;;;;;;;8.40;3.53;;;;;;;;;;5038655;28;20022;-53
2022/08/17 09:47:01;;;;;;;6.88;3.33;;;;;;;;;;5038628;28;20033;-51
2022/08/17 09:49:27;;;;;;;;;;;;;;;;;;5039018;28;20577;-54
2022/08/17 09:51:57;;;;;;;6.65;3.20;;;;;;;;;;5038571;28;19955;-57
2022/08/17 09:54:28;;;;;;;7.13;3.08;;;;;;;;;;5036874;28;20483;-56
2022/08/17 09:57:01;;;;;;;8.13;2.80;;;;;;;;;;5035484;28;20037;-55
2022/08/17 09:59:40;;;;;;;6.22;2.70;;;;;;;;;;5035449;28;20025;-56
2022/08/17 10:02:24;;;;;;;6.78;3.13;;;;;;;;;;5035422;28;20152;-55
2022/08/17 10:05:03;;;;;;;5.18;2.58;;;;;;;;;;5035260;28;20055;-56
2022/08/17 10:08:02;;;;;;;8.25;2.80;;;;;;;;;;5035496;28;20105;-56
2022/08/17 10:10:36;;;;;;;4.97;2.70;;;;;;;;;;4981654;28;20506;-53
2022/08/17 10:13:15;;;;;;;5.93;2.40;;;;;;;;;;5035159;28;20496;-55
2022/08/17 10:15:42;;;;;;;6.90;2.70;;;;;;;;;;5035098;28;20033;-53
2022/08/17 10:18:11;;;;;;;6.65;2.60;;;;;;;;;;5035130;28;20057;-55
2022/08/17 10:20:41;;;;;;;5.57;2.45;;;;;;;;;;5034956;28;20113;-56
2022/08/17 10:26:14;;;;;;;5.25;2.15;;;;;;;;;;5035239;28;20075;-56
2022/08/17 10:28:59;;;;;;;5.80;2.45;;;;;;;;;;5034889;28;20498;-53
2022/08/17 10:31:38;;;;;;;4.72;2.50;;;;;;;;;;5034471;28;20025;-57
2022/08/17 10:34:22;;;;;;;5.65;2.22;;;;;;;;;;5034694;28;20108;-55
2022/08/17 10:36:53;;;;;;;4.03;2.38;;;;;;;;;;5034754;28;20044;-53
2022/08/17 10:39:29;;;;;;;5.15;2.30;;;;;;;;;;5034544;28;20122;-55
2022/08/17 10:42:00;;;;;;;4.00;2.20;;;;;;;;;;5034469;28;20471;-56
2022/08/17 10:44:47;;;;;;;3.78;2.15;;;;;;;;;;5034600;28;20026;-56
2022/08/17 10:47:15;;;;;;;3.85;1.80;;;;;;;;;;5034506;28;20033;-54
2022/08/17 10:49:52;;;;;;;4.20;2.10;;;;;;;;;;5034514;28;20030;-55
2022/08/17 10:52:29;;;;;;;4.22;1.70;;;;;;;;;;5034189;28;20040;-50
2022/08/17 10:54:56;;;;;;;4.75;1.80;;;;;;;;;;5034184;28;20036;-53
2022/08/17 10:57:43;;;;;;;3.88;2.03;;;;;;;;;;5034230;28;20041;-52
2022/08/17 11:00:16;;;;;;;4.35;1.77;;;;;;;;;;5034128;28;20483;-56
2022/08/17 11:02:48;;;;;;;3.83;1.77;;;;;;;;;;5034198;28;20029;-54
2022/08/17 11:05:18;;;;;;;4.20;1.97;;;;;;;;;;5033688;28;20083;-54
2022/08/17 11:08:04;;;;;;;4.45;1.88;;;;;;;;;;5016749;28;20463;-54
2022/08/17 11:10:46;;;;;;;4.90;1.70;;;;;;;;;;5012089;28;20050;-50
2022/08/17 11:13:13;;;;;;;2.30;1.10;;;;;;;;;;5013463;28;20418;-55
2022/08/17 11:15:44;;;;;;;2.78;1.10;;;;;;;;;;5013890;28;20030;-55
2022/08/17 11:18:29;;;;;;;1.27;0.75;;;;;;;;;;5014014;28;20034;-54
2022/08/17 11:21:02;;;;;;;1.90;1.05;;;;;;;;;;5013844;28;20467;-52
2022/08/17 11:23:32;;;;;;;1.85;0.90;;;;;;;;;;5013915;28;20038;-53
2022/08/17 11:26:02;;;;;;;5.80;1.30;;;;;;;;;;5009065;28;20488;-53
2022/08/17 11:28:34;;;;;;;4.88;1.15;;;;;;;;;;5013163;28;20496;-53
2022/08/17 11:31:05;;;;;;;3.97;0.82;;;;;;;;;;5012623;28;20041;-51
2022/08/17 11:33:35;;;;;;;2.63;1.00;;;;;;;;;;5012746;28;20172;-49
2022/08/17 11:36:20;;;;;;;1.90;1.10;;;;;;;;;;5013388;28;20133;-50
2022/08/17 11:38:51;;;;;;;2.15;0.85;;;;;;;;;;4993538;28;20038;-46
2022/08/17 11:41:38;;;;;;;3.80;0.90;;;;;;;;;;4992745;28;20034;-50
2022/08/17 11:44:11;;;;;;;3.67;0.80;;;;;;;;;;4993169;28;20037;-51
2022/08/17 11:52:44;;;;;;;1.05;0.60;;;;;;;;;;4993446;28;20509;-46
2022/08/17 11:55:14;;;;;;;2.03;0.90;;;;;;;;;;4992593;28;20042;-56
2022/08/17 11:57:40;;;;;;;2.25;0.90;;;;;;;;;;4993800;28;20073;-54
2022/08/17 12:00:26;;;;;;;2.05;1.17;;;;;;;;;;4992138;28;20045;-53
2022/08/17 12:03:13;;;;;;;2.97;1.10;;;;;;;;;;4993249;28;20057;-52
2022/08/17 12:05:39;;;;;;;2.72;0.75;;;;;;;;;;4992212;28;20456;-54
2022/08/17 12:08:10;;;;;;;1.98;0.93;;;;;;;;;;4992947;28;20077;-57
2022/08/17 12:10:41;;;;;;;1.88;1.00;;;;;;;;;;4992020;28;20546;-55
2022/08/17 12:13:14;;;;;;;2.40;1.10;;;;;;;;;;4993270;28;20026;-57
2022/08/17 12:15:47;;;;;;;1.73;0.80;;;;;;;;;;4992198;28;20092;-56
2022/08/17 12:18:21;;;;;;;1.35;0.93;;;;;;;;;;4997062;28;20041;-54
2022/08/17 12:20:59;;;;;;;1.20;0.80;;;;;;;;;;5008545;28;20048;-56
2022/08/17 12:23:46;;;;;;;2.60;0.95;;;;;;;;;;5012992;28;20372;-55
2022/08/17 12:26:18;;;;;;;2.22;1.00;;;;;;;;;;5012522;28;20390;-56
2022/08/17 12:28:47;;;;;;;1.77;0.80;;;;;;;;;;5011885;28;20026;-55
2022/08/17 12:31:17;;;;;;;1.83;0.82;;;;;;;;;;5012593;28;20030;-56
2022/08/17 12:33:45;;;;;;;2.67;0.93;;;;;;;;;;5008260;28;20049;-55
2022/08/17 12:36:14;;;;;;;3.90;0.90;;;;;;;;;;5012315;28;20038;-49
2022/08/17 12:38:48;;;;;;;2.63;1.10;;;;;;;;;;5010850;28;20033;-55
2022/08/17 12:41:28;;;;;;;5.07;1.10;;;;;;;;;;5012532;28;20365;-51
2022/08/17 12:44:13;;;;;;;4.93;1.10;;;;;;;;;;5011666;28;20029;-53
2022/08/17 12:46:51;;;;;;;4.57;1.20;;;;;;;;;;5011694;28;20083;-52
2022/08/17 12:49:25;;;;;;;6.47;1.00;;;;;;;;;;5011270;28;20057;-55
2022/08/17 12:51:55;;;;;;;4.47;0.98;;;;;;;;;;5012391;28;20074;-56
2022/08/17 12:54:30;;;;;;;2.92;0.80;;;;;;;;;;5011090;28;20080;-57
2022/08/17 12:57:00;;;;;;;5.25;1.10;;;;;;;;;;5012305;28;20084;-54
2022/08/17 12:59:31;;;;;;;4.63;0.90;;;;;;;;;;5011485;28;20113;-56
2022/08/17 13:01:59;;;;;;;7.53;1.05;;;;;;;;;;5011555;28;20109;-58
2022/08/17 13:04:27;;;;;;;12.80;1.27;;;;;;;;;;5010989;28;20103;-52
2022/08/17 13:06:54;;;;;;;8.88;1.00;;;;;;;;;;5012065;28;20034;-52
2022/08/17 13:09:28;;;;;;;4.72;0.88;;;;;;;;;;5011244;28;20045;-58
2022/08/17 13:12:02;;;;;;;4.80;0.82;;;;;;;;;;5011749;28;20057;-54
2022/08/17 13:14:29;;;;;;;7.15;1.00;;;;;;;;;;5011363;28;20038;-56
2022/08/17 13:16:58;;;;;;;3.38;0.77;;;;;;;;;;5011600;28;20040;-49
2022/08/17 13:19:27;;;;;;;3.17;0.80;;;;;;;;;;5012116;28;20034;-57
2022/08/17 13:21:58;;;;;;;5.75;0.90;;;;;;;;;;5011118;28;20494;-50
2022/08/17 13:24:30;;;;;;;2.47;0.82;;;;;;;;;;5010621;28;20536;-50
2022/08/17 13:26:59;;;;;;;2.45;0.60;;;;;;;;;;5011644;28;20037;-48
2022/08/17 13:29:26;;;;;;;3.60;0.63;;;;;;;;;;5013432;28;20030;-53
2022/08/17 13:31:57;;;;;;;4.25;0.73;;;;;;;;;;4997337;28;20050;-52
2022/08/17 13:34:26;;;;;;;3.30;0.70;;;;;;;;;;5014725;28;20034;-51
2022/08/17 13:37:13;;;;;;;4.90;0.90;;;;;;;;;;5013374;28;20108;-52
2022/08/17 13:39:44;;;;;;;3.85;0.90;;;;;;;;;;5014634;28;20538;-55
2022/08/17 13:42:29;;;;;;;4.57;0.60;;;;;;;;;;5014382;28;20080;-50
2022/08/17 13:44:57;;;;;;;6.25;0.73;;;;;;;;;;5014884;28;20033;-50
2022/08/17 13:47:25;;;;;;;9.18;0.68;;;;;;;;;;5015460;28;20511;-49
2022/08/17 13:49:54;;;;;;;6.72;0.70;;;;;;;;;;5015317;28;20054;-54
2022/08/17 13:52:35;;;;;;;6.47;0.90;;;;;;;;;;5013983;28;20053;-48
2022/08/17 13:55:04;;;;;;;10.43;0.95;;;;;;;;;;5015218;28;20074;-53
2022/08/17 13:57:31;;;;;;;11.93;1.00;;;;;;;;;;5013285;28;20034;-53
2022/08/17 14:00:12;;;;;;;8.13;0.65;;;;;;;;;;5014757;28;20030;-46
2022/08/17 14:02:39;;;;;;;7.05;0.80;;;;;;;;;;5013610;28;20053;-56
2022/08/17 14:05:06;;;;;;;4.97;0.80;;;;;;;;;;5014669;28;20029;-51
2022/08/17 14:07:35;;;;;;;9.40;0.90;;;;;;;;;;5014711;28;20105;-53
2022/08/17 14:10:02;;;;;;;6.97;0.77;;;;;;;;;;5014846;28;20060;-55
2022/08/17 14:12:31;;;;;;;8.95;0.95;;;;;;;;;;5013873;28;20022;-55
2022/08/17 14:14:59;;;;;;;5.68;0.75;;;;;;;;;;5013613;28;20114;-53
2022/08/17 14:17:30;;;;;;;11.30;1.30;;;;;;;;;;5014863;28;20109;-47
2022/08/17 14:19:58;;;;;;;6.60;0.80;;;;;;;;;;5014258;28;20502;-50
2022/08/17 14:22:30;;;;;;;11.43;1.20;;;;;;;;;;5013955;28;20038;-48
2022/08/17 14:24:57;;;;;;;7.40;0.85;;;;;;;;;;5013641;28;20111;-48
2022/08/17 14:27:26;;;;;;;9.60;1.13;;;;;;;;;;5014488;28;20030;-48
2022/08/17 14:29:55;;;;;;;8.35;0.73;;;;;;;;;;5014100;28;20038;-53
2022/08/17 14:32:25;;;;;;;10.48;1.05;;;;;;;;;;5014057;28;20098;-50
2022/08/17 14:34:55;;;;;;;5.32;0.85;;;;;;;;;;5012887;28;20579;-47
2022/08/17 14:37:24;;;;;;;8.77;1.40;;;;;;;;;;5014096;28;20029;-57
2022/08/17 14:39:54;;;;;;;6.63;0.90;;;;;;;;;;5013713;28;20399;-51
2022/08/17 14:42:24;;;;;;;7.93;0.80;;;;;;;;;;5013219;28;20388;-48
2022/08/17 14:44:52;;;;;;;5.78;0.77;;;;;;;;;;5013197;28;20057;-49
2022/08/17 14:47:19;;;;;;;4.13;0.75;;;;;;;;;;5013103;28;20045;-51
2022/08/17 14:49:49;;;;;;;6.95;0.90;;;;;;;;;;5014097;28;20062;-50
2022/08/17 14:52:20;;;;;;;6.00;1.00;;;;;;;;;;5013472;28;20029;-55
2022/08/17 14:54:50;;;;;;;5.53;0.75;;;;;;;;;;5012930;28;20092;-51
2022/08/17 14:57:17;;;;;;;8.38;0.90;;;;;;;;;;5012831;28;20109;-49
2022/08/17 14:59:44;;;;;;;6.15;0.80;;;;;;;;;;5013738;28;20026;-50
2022/08/17 15:02:12;;;;;;;6.60;0.60;;;;;;;;;;5013574;28;20022;-53
2022/08/17 15:04:39;;;;;;;7.68;0.70;;;;;;;;;;5012946;28;20037;-48
2022/08/17 15:07:06;;;;;;;3.80;0.88;;;;;;;;;;5005619;28;20034;-52
2022/08/17 15:09:33;;;;;;;2.50;0.63;;;;;;;;;;5013816;28;20021;-46
2022/08/17 15:12:05;;;;;;;9.27;0.85;;;;;;;;;;5013497;28;20033;-49
2022/08/17 15:14:32;;;;;;;6.20;0.93;;;;;;;;;;5012271;28;20033;-52
2022/08/17 15:16:59;;;;;;;8.98;1.00;;;;;;;;;;5013124;28;20026;-45
2022/08/17 15:19:26;;;;;;;7.00;0.80;;;;;;;;;;5012565;28;20045;-48
2022/08/17 15:21:53;;;;;;;10.88;1.67;;;;;;;;;;5012906;28;20061;-49
2022/08/17 15:24:20;;;;;;;11.23;1.60;;;;;;;;;;5012819;28;20030;-49